sensor_id;sensor_type;location;lat;lon;timestamp;P1;P2;P0
69746;PMS7003;57018;50.278;19.134;2022-12-18T10:19:25;72.50;58.00;38.00
69746;PMS7003;57018;50.278;19.134;2022-12-18T10:22:11;82.00;63.00;39.00
69746;PMS7003;57018;50.278;19.134;2022-12-18T10:25:01;90.00;66.00;41.00
69746;PMS7003;57018;50.278;19.134;2022-12-18T10:27:43;79.00;63.00;40.00
69746;PMS7003;57018;50.278;19.134;2022-12-18T10:30:14;85.00;67.00;43.00
69746;PMS7003;57018;50.278;19.134;2022-12-18T10:32:45;78.50;60.50;38.00
69746;PMS7003;57018;50.278;19.134;2022-12-18T10:35:17;72.00;56.00;39.00
69746;PMS7003;57018;50.278;19.134;2022-12-18T10:40:50;67.50;54.50;34.00
69746;PMS7003;57018;50.278;19.134;2022-12-18T10:43:24;78.00;62.00;38.00
69746;PMS7003;57018;50.278;19.134;2022-12-18T10:48:53;79.50;60.00;40.50
69746;PMS7003;57018;50.278;19.134;2022-12-18T10:51:26;79.00;63.00;38.00
69746;PMS7003;57018;50.278;19.134;2022-12-18T10:53:59;71.00;55.00;34.50
69746;PMS7003;57018;50.278;19.134;2022-12-18T10:56:32;66.00;54.00;30.00
69746;PMS7003;57018;50.278;19.134;2022-12-18T10:59:05;74.00;56.50;34.50
69746;PMS7003;57018;50.278;19.134;2022-12-18T11:01:46;77.00;57.00;35.00
69746;PMS7003;57018;50.278;19.134;2022-12-18T11:04:19;73.00;56.00;34.00
69746;PMS7003;57018;50.278;19.134;2022-12-18T11:06:55;73.00;57.00;37.50
69746;PMS7003;57018;50.278;19.134;2022-12-18T11:09:29;73.00;59.00;35.00
69746;PMS7003;57018;50.278;19.134;2022-12-18T11:12:01;75.00;58.00;36.00
69746;PMS7003;57018;50.278;19.134;2022-12-18T11:14:34;73.00;60.00;38.00
69746;PMS7003;57018;50.278;19.134;2022-12-18T11:17:20;76.00;60.00;38.00
69746;PMS7003;57018;50.278;19.134;2022-12-18T11:19:56;68.50;55.00;33.00
69746;PMS7003;57018;50.278;19.134;2022-12-18T11:22:27;68.00;57.00;34.50
69746;PMS7003;57018;50.278;19.134;2022-12-18T11:24:59;81.50;62.00;39.00
69746;PMS7003;57018;50.278;19.134;2022-12-18T11:27:32;72.50;55.50;34.50
69746;PMS7003;57018;50.278;19.134;2022-12-18T11:30:09;71.00;56.00;33.00
69746;PMS7003;57018;50.278;19.134;2022-12-18T11:32:48;72.00;56.00;34.00
69746;PMS7003;57018;50.278;19.134;2022-12-18T11:35:28;64.00;51.00;33.00
69746;PMS7003;57018;50.278;19.134;2022-12-18T11:40:54;55.00;43.00;23.00
69746;PMS7003;57018;50.278;19.134;2022-12-18T11:43:28;73.00;53.00;31.00
69746;PMS7003;57018;50.278;19.134;2022-12-18T11:46:08;58.00;46.00;29.00
69746;PMS7003;57018;50.278;19.134;2022-12-18T11:48:44;57.00;50.50;29.00
69746;PMS7003;57018;50.278;19.134;2022-12-18T11:51:25;62.50;46.00;30.50
69746;PMS7003;57018;50.278;19.134;2022-12-18T11:54:08;56.00;48.00;32.00
69746;PMS7003;57018;50.278;19.134;2022-12-18T11:56:44;60.00;53.00;31.00
69746;PMS7003;57018;50.278;19.134;2022-12-18T11:59:19;71.00;49.00;31.00
69746;PMS7003;57018;50.278;19.134;2022-12-18T12:01:58;61.00;46.00;29.00
69746;PMS7003;57018;50.278;19.134;2022-12-18T12:04:59;49.00;43.00;29.00
69746;PMS7003;57018;50.278;19.134;2022-12-18T12:07:41;57.00;47.00;28.00
69746;PMS7003;57018;50.278;19.134;2022-12-18T12:10:23;66.00;50.00;33.00
69746;PMS7003;57018;50.278;19.134;2022-12-18T12:15:42;54.00;47.00;27.00
69746;PMS7003;57018;50.278;19.134;2022-12-18T12:18:26;61.00;49.00;31.00
69746;PMS7003;57018;50.278;19.134;2022-12-18T12:21:05;65.50;49.50;31.00
69746;PMS7003;57018;50.278;19.134;2022-12-18T12:23:43;53.00;45.00;29.50
69746;PMS7003;57018;50.278;19.134;2022-12-18T12:26:24;56.67;49.67;31.67
69746;PMS7003;57018;50.278;19.134;2022-12-18T12:29:15;74.00;52.00;33.00
69746;PMS7003;57018;50.278;19.134;2022-12-18T12:34:33;62.50;49.50;30.00
69746;PMS7003;57018;50.278;19.134;2022-12-18T12:37:14;60.00;47.00;29.00
69746;PMS7003;57018;50.278;19.134;2022-12-18T12:39:53;59.50;48.00;32.50
69746;PMS7003;57018;50.278;19.134;2022-12-18T12:42:26;65.00;48.00;31.50
69746;PMS7003;57018;50.278;19.134;2022-12-18T12:45:20;57.00;47.00;32.00
69746;PMS7003;57018;50.278;19.134;2022-12-18T12:47:55;63.00;50.00;34.00
69746;PMS7003;57018;50.278;19.134;2022-12-18T12:50:29;65.00;52.50;32.50
69746;PMS7003;57018;50.278;19.134;2022-12-18T12:53:05;53.00;47.00;26.00
69746;PMS7003;57018;50.278;19.134;2022-12-18T12:55:37;62.50;53.00;35.00
69746;PMS7003;57018;50.278;19.134;2022-12-18T12:58:11;68.00;51.00;29.00
69746;PMS7003;57018;50.278;19.134;2022-12-18T13:00:49;66.00;49.00;33.00
69746;PMS7003;57018;50.278;19.134;2022-12-18T13:03:30;67.50;53.50;32.00
69746;PMS7003;57018;50.278;19.134;2022-12-18T13:06:11;64.00;49.00;33.00
69746;PMS7003;57018;50.278;19.134;2022-12-18T13:08:55;45.50;42.00;24.50
69746;PMS7003;57018;50.278;19.134;2022-12-18T13:11:31;71.00;55.00;32.00
69746;PMS7003;57018;50.278;19.134;2022-12-18T13:14:27;54.00;46.00;25.00
69746;PMS7003;57018;50.278;19.134;2022-12-18T13:17:21;71.00;53.50;32.00
69746;PMS7003;57018;50.278;19.134;2022-12-18T13:20:05;69.00;54.00;33.00
69746;PMS7003;57018;50.278;19.134;2022-12-18T13:22:41;61.00;52.00;34.00
69746;PMS7003;57018;50.278;19.134;2022-12-18T13:25:29;70.50;51.00;33.00
69746;PMS7003;57018;50.278;19.134;2022-12-18T13:28:03;54.00;48.00;30.00
69746;PMS7003;57018;50.278;19.134;2022-12-18T13:30:49;55.00;48.00;30.00
69746;PMS7003;57018;50.278;19.134;2022-12-18T13:36:28;58.00;45.00;30.00
69746;PMS7003;57018;50.278;19.134;2022-12-18T13:45:41;54.00;42.00;25.00
69746;PMS7003;57018;50.278;19.134;2022-12-18T13:48:21;64.00;51.00;34.00
69746;PMS7003;57018;50.278;19.134;2022-12-18T13:51:02;54.00;43.00;28.00
69746;PMS7003;57018;50.278;19.134;2022-12-18T13:53:36;65.00;48.50;30.00
69746;PMS7003;57018;50.278;19.134;2022-12-18T14:01:46;48.00;45.00;30.00
69746;PMS7003;57018;50.278;19.134;2022-12-18T14:04:20;51.00;46.00;31.00
69746;PMS7003;57018;50.278;19.134;2022-12-18T14:06:55;61.00;48.00;27.00
69746;PMS7003;57018;50.278;19.134;2022-12-18T14:09:29;69.50;57.50;33.00
69746;PMS7003;57018;50.278;19.134;2022-12-18T14:12:03;70.00;55.00;33.00
69746;PMS7003;57018;50.278;19.134;2022-12-18T14:14:51;67.00;54.33;34.00
69746;PMS7003;57018;50.278;19.134;2022-12-18T14:17:22;76.50;57.50;36.00
69746;PMS7003;57018;50.278;19.134;2022-12-18T14:19:52;68.67;53.33;35.33
69746;PMS7003;57018;50.278;19.134;2022-12-18T14:22:23;70.00;55.50;36.00
69746;PMS7003;57018;50.278;19.134;2022-12-18T14:25:10;63.50;52.00;32.00
69746;PMS7003;57018;50.278;19.134;2022-12-18T14:27:45;64.00;52.00;36.00
69746;PMS7003;57018;50.278;19.134;2022-12-18T14:30:29;73.00;58.67;39.67
69746;PMS7003;57018;50.278;19.134;2022-12-18T14:33:01;75.50;57.50;36.50
69746;PMS7003;57018;50.278;19.134;2022-12-18T14:35:34;77.00;60.00;41.00
69746;PMS7003;57018;50.278;19.134;2022-12-18T14:38:19;76.50;60.50;36.00
69746;PMS7003;57018;50.278;19.134;2022-12-18T14:41:03;84.00;66.00;42.00
69746;PMS7003;57018;50.278;19.134;2022-12-18T14:43:35;85.50;63.50;44.00
69746;PMS7003;57018;50.278;19.134;2022-12-18T14:46:19;83.50;66.00;45.50
69746;PMS7003;57018;50.278;19.134;2022-12-18T14:48:57;78.50;63.50;42.00
69746;PMS7003;57018;50.278;19.134;2022-12-18T14:51:28;84.00;66.00;42.00
69746;PMS7003;57018;50.278;19.134;2022-12-18T14:54:01;74.00;62.00;42.50
69746;PMS7003;57018;50.278;19.134;2022-12-18T14:56:35;73.00;57.50;36.50
69746;PMS7003;57018;50.278;19.134;2022-12-18T14:59:13;75.67;62.67;38.67
69746;PMS7003;57018;50.278;19.134;2022-12-18T15:01:49;94.00;72.00;46.00
69746;PMS7003;57018;50.278;19.134;2022-12-18T15:04:28;91.00;70.00;46.00
69746;PMS7003;57018;50.278;19.134;2022-12-18T15:07:12;91.00;71.00;45.00
69746;PMS7003;57018;50.278;19.134;2022-12-18T15:12:45;92.00;69.50;47.00
69746;PMS7003;57018;50.278;19.134;2022-12-18T15:18:17;87.00;67.00;45.00
69746;PMS7003;57018;50.278;19.134;2022-12-18T15:20:50;94.00;70.00;45.00
69746;PMS7003;57018;50.278;19.134;2022-12-18T15:23:24;85.00;67.00;42.33
69746;PMS7003;57018;50.278;19.134;2022-12-18T15:28:29;91.00;69.00;45.00
69746;PMS7003;57018;50.278;19.134;2022-12-18T15:31:04;88.50;68.00;43.00
69746;PMS7003;57018;50.278;19.134;2022-12-18T15:34:01;57.50;43.50;11.00
69746;PMS7003;57018;50.278;19.134;2022-12-18T15:36:49;85.00;72.00;46.00
69746;PMS7003;57018;50.278;19.134;2022-12-18T15:39:20;90.00;72.00;45.00
69746;PMS7003;57018;50.278;19.134;2022-12-18T15:41:51;100.00;75.00;49.00
69746;PMS7003;57018;50.278;19.134;2022-12-18T15:44:38;98.50;75.00;46.00
69746;PMS7003;57018;50.278;19.134;2022-12-18T15:47:10;106.00;79.00;51.00
69746;PMS7003;57018;50.278;19.134;2022-12-18T15:49:41;94.00;76.00;48.50
69746;PMS7003;57018;50.278;19.134;2022-12-18T15:52:11;102.00;79.00;49.00
69746;PMS7003;57018;50.278;19.134;2022-12-18T15:54:52;94.00;73.00;46.00
69746;PMS7003;57018;50.278;19.134;2022-12-18T15:57:40;102.00;75.00;49.00
69746;PMS7003;57018;50.278;19.134;2022-12-18T16:00:13;95.00;72.50;47.00
69746;PMS7003;57018;50.278;19.134;2022-12-18T16:05:13;106.00;81.00;52.00
69746;PMS7003;57018;50.278;19.134;2022-12-18T16:07:45;99.00;75.00;48.00
69746;PMS7003;57018;50.278;19.134;2022-12-18T16:10:16;97.50;75.50;48.50
69746;PMS7003;57018;50.278;19.134;2022-12-18T16:12:46;87.00;66.50;43.00
69746;PMS7003;57018;50.278;19.134;2022-12-18T16:15:16;88.50;68.00;42.00
69746;PMS7003;57018;50.278;19.134;2022-12-18T16:17:47;91.00;70.00;46.00
69746;PMS7003;57018;50.278;19.134;2022-12-18T16:20:19;94.00;74.50;47.00
69746;PMS7003;57018;50.278;19.134;2022-12-18T16:22:50;97.00;78.00;48.00
69746;PMS7003;57018;50.278;19.134;2022-12-18T16:25:23;105.00;78.00;48.00
69746;PMS7003;57018;50.278;19.134;2022-12-18T16:27:55;95.00;70.00;45.00
69746;PMS7003;57018;50.278;19.134;2022-12-18T16:30:26;97.00;75.00;48.00
69746;PMS7003;57018;50.278;19.134;2022-12-18T16:32:57;94.00;70.00;43.00
69746;PMS7003;57018;50.278;19.134;2022-12-18T16:35:28;93.00;72.00;46.00
69746;PMS7003;57018;50.278;19.134;2022-12-18T16:37:59;101.00;75.00;49.00
69746;PMS7003;57018;50.278;19.134;2022-12-18T16:42:59;97.00;73.00;46.00
69746;PMS7003;57018;50.278;19.134;2022-12-18T16:45:29;91.00;67.00;40.00
69746;PMS7003;57018;50.278;19.134;2022-12-18T16:47:59;96.00;75.00;46.00
69746;PMS7003;57018;50.278;19.134;2022-12-18T16:50:29;100.00;75.00;48.00
69746;PMS7003;57018;50.278;19.134;2022-12-18T16:52:59;93.00;73.00;48.00
69746;PMS7003;57018;50.278;19.134;2022-12-18T16:55:29;91.00;70.00;45.00
69746;PMS7003;57018;50.278;19.134;2022-12-18T16:57:59;95.00;74.00;48.50
69746;PMS7003;57018;50.278;19.134;2022-12-18T17:00:29;99.50;72.50;45.50
69746;PMS7003;57018;50.278;19.134;2022-12-18T17:05:28;91.00;70.00;46.00
69746;PMS7003;57018;50.278;19.134;2022-12-18T17:08:01;102.00;76.00;48.00
69746;PMS7003;57018;50.278;19.134;2022-12-18T17:10:33;97.50;71.00;45.00
69746;PMS7003;57018;50.278;19.134;2022-12-18T17:13:03;96.50;72.50;46.00
69746;PMS7003;57018;50.278;19.134;2022-12-18T17:15:35;96.50;73.50;47.00
69746;PMS7003;57018;50.278;19.134;2022-12-18T17:18:05;55.00;36.00;9.00
69746;PMS7003;57018;50.278;19.134;2022-12-18T17:20:35;86.00;66.00;39.00
69746;PMS7003;57018;50.278;19.134;2022-12-18T17:23:05;92.00;71.00;44.50
69746;PMS7003;57018;50.278;19.134;2022-12-18T17:25:35;90.00;67.00;43.00
69746;PMS7003;57018;50.278;19.134;2022-12-18T17:28:08;84.50;65.00;45.00
69746;PMS7003;57018;50.278;19.134;2022-12-18T17:30:40;93.00;70.00;46.00
69746;PMS7003;57018;50.278;19.134;2022-12-18T17:33:14;84.00;66.00;42.00
69746;PMS7003;57018;50.278;19.134;2022-12-18T17:35:46;79.50;65.50;42.00
69746;PMS7003;57018;50.278;19.134;2022-12-18T17:38:16;85.00;69.00;44.00
69746;PMS7003;57018;50.278;19.134;2022-12-18T17:40:51;83.50;68.00;42.50
69746;PMS7003;57018;50.278;19.134;2022-12-18T17:43:31;86.50;66.00;42.00
69746;PMS7003;57018;50.278;19.134;2022-12-18T17:46:05;79.00;65.00;42.50
69746;PMS7003;57018;50.278;19.134;2022-12-18T17:48:37;58.00;45.50;12.50
69746;PMS7003;57018;50.278;19.134;2022-12-18T17:51:32;84.00;66.00;40.00
69746;PMS7003;57018;50.278;19.134;2022-12-18T17:54:09;79.00;57.00;36.00
69746;PMS7003;57018;50.278;19.134;2022-12-18T18:06:15;73.00;63.00;39.00
69746;PMS7003;57018;50.278;19.134;2022-12-18T18:08:48;79.00;64.00;39.00
69746;PMS7003;57018;50.278;19.134;2022-12-18T18:11:22;84.00;66.00;40.00
69746;PMS7003;57018;50.278;19.134;2022-12-18T18:14:12;87.00;72.00;46.00
69746;PMS7003;57018;50.278;19.134;2022-12-18T18:16:45;90.50;69.00;43.00
69746;PMS7003;57018;50.278;19.134;2022-12-18T18:55:24;96.50;71.00;44.00
69746;PMS7003;57018;50.278;19.134;2022-12-18T19:18:02;80.00;63.50;36.50
69746;PMS7003;57018;50.278;19.134;2022-12-18T19:20:42;91.00;72.00;45.00
69746;PMS7003;57018;50.278;19.134;2022-12-18T19:23:23;91.00;72.00;42.00
69746;PMS7003;57018;50.278;19.134;2022-12-18T19:25:54;90.50;70.50;45.50
69746;PMS7003;57018;50.278;19.134;2022-12-18T19:28:28;85.50;66.50;45.00
69746;PMS7003;57018;50.278;19.134;2022-12-18T19:38:57;86.00;69.00;42.50
69746;PMS7003;57018;50.278;19.134;2022-12-18T19:41:39;85.00;66.25;43.00
69746;PMS7003;57018;50.278;19.134;2022-12-18T19:49:43;75.00;61.00;42.00
69746;PMS7003;57018;50.278;19.134;2022-12-18T19:52:27;85.00;66.00;40.00
69746;PMS7003;57018;50.278;19.134;2022-12-18T20:00:02;31.00;24.00;0.00
69746;PMS7003;57018;50.278;19.134;2022-12-18T20:02:55;93.00;69.00;42.00
69746;PMS7003;57018;50.278;19.134;2022-12-18T20:05:27;97.00;75.00;46.00
69746;PMS7003;57018;50.278;19.134;2022-12-18T20:08:00;88.00;64.00;42.00
69746;PMS7003;57018;50.278;19.134;2022-12-18T20:16:02;75.50;58.50;38.00
69746;PMS7003;57018;50.278;19.134;2022-12-18T20:18:33;87.00;66.00;40.00
69746;PMS7003;57018;50.278;19.134;2022-12-18T20:21:03;92.00;65.50;41.00
69746;PMS7003;57018;50.278;19.134;2022-12-18T20:23:34;79.00;66.00;42.00
69746;PMS7003;57018;50.278;19.134;2022-12-18T20:33:38;102.00;78.00;46.00
69746;PMS7003;57018;50.278;19.134;2022-12-18T20:36:11;98.50;77.50;51.00
69746;PMS7003;57018;50.278;19.134;2022-12-18T20:38:46;37.00;31.00;0.00
69746;PMS7003;57018;50.278;19.134;2022-12-18T20:41:17;103.00;81.00;51.00
69746;PMS7003;57018;50.278;19.134;2022-12-18T20:43:48;105.00;78.00;51.00
69746;PMS7003;57018;50.278;19.134;2022-12-18T20:46:25;99.50;78.00;48.50
69746;PMS7003;57018;50.278;19.134;2022-12-18T20:48:59;108.50;81.50;49.00
69746;PMS7003;57018;50.278;19.134;2022-12-18T20:59:02;115.00;93.00;52.00
69746;PMS7003;57018;50.278;19.134;2022-12-18T21:01:32;67.00;45.00;9.00
69746;PMS7003;57018;50.278;19.134;2022-12-18T21:06:32;111.00;85.00;55.00
69746;PMS7003;57018;50.278;19.134;2022-12-18T21:09:04;115.00;94.50;58.50
69746;PMS7003;57018;50.278;19.134;2022-12-18T21:14:22;112.00;94.00;55.00
69746;PMS7003;57018;50.278;19.134;2022-12-18T21:16:54;106.00;77.00;49.00
69746;PMS7003;57018;50.278;19.134;2022-12-18T23:13:29;96.00;72.00;40.00
69746;PMS7003;57018;50.278;19.134;2022-12-18T23:39:47;74.00;59.50;36.50
69746;PMS7003;57018;50.278;19.134;2022-12-18T23:42:17;84.00;63.00;39.00
69746;PMS7003;57018;50.278;19.134;2022-12-18T23:44:47;65.50;53.00;37.50
69746;PMS7003;57018;50.278;19.134;2022-12-18T23:47:17;75.00;59.50;36.50
